Time;durP1;ratioP1;P1;durP2;ratioP2;P2;SDS_P1;SDS_P2;PMS_P1;PMS_P2;Temp;Humidity;BMP_temperature;BMP_pressure;BME280_temperature;BME280_humidity;BME280_pressure;Samples;Min_cycle;Max_cycle;Signal;HPM_P1;HPM_P2
2023/05/09 00:00:11;;;;;;;3.10;2.90;;;13.30;99.90;;;;;;4980208;28;20485;-66
2023/05/09 00:02:44;;;;;;;3.63;3.43;;;13.30;99.90;;;;;;4981471;28;20461;-68
2023/05/09 00:05:13;;;;;;;5.60;3.47;;;13.30;99.90;;;;;;4979556;28;21041;-67
2023/05/09 00:07:42;;;;;;;3.67;3.37;;;13.30;99.90;;;;;;4980860;28;20489;-66
2023/05/09 00:10:10;;;;;;;4.70;3.40;;;13.20;99.90;;;;;;4980551;28;20482;-66
2023/05/09 00:12:38;;;;;;;5.83;3.23;;;13.20;99.90;;;;;;4977983;28;20480;-67
2023/05/09 00:15:08;;;;;;;3.37;3.17;;;13.20;99.90;;;;;;4976889;28;21049;-67
2023/05/09 00:17:37;;;;;;;5.83;3.43;;;13.10;99.90;;;;;;4978434;28;20490;-68
2023/05/09 00:20:11;;;;;;;3.37;3.17;;;13.10;99.90;;;;;;4979889;28;20520;-67
2023/05/09 00:22:39;;;;;;;3.60;3.30;;;13.10;99.90;;;;;;4979758;28;20492;-67
2023/05/09 00:25:08;;;;;;;3.80;3.50;;;13.00;99.90;;;;;;4980010;28;20476;-66
2023/05/09 00:27:37;;;;;;;3.47;3.17;;;13.00;99.90;;;;;;4979028;28;20485;-66
2023/05/09 00:30:06;;;;;;;4.20;3.60;;;13.00;99.90;;;;;;4979822;28;21025;-67
2023/05/09 00:32:34;;;;;;;3.40;3.17;;;13.00;99.90;;;;;;4976598;28;20468;-67
2023/05/09 00:35:02;;;;;;;4.40;3.47;;;13.00;99.90;;;;;;4981323;28;21059;-66
2023/05/09 00:37:32;;;;;;;5.63;3.23;;;12.90;99.90;;;;;;4983779;28;20505;-67
2023/05/09 00:40:00;;;;;;;3.63;3.33;;;12.80;99.90;;;;;;4983644;28;20493;-67
2023/05/09 00:42:27;;;;;;;3.47;3.17;;;12.80;99.90;;;;;;4978698;28;20488;-68
2023/05/09 00:44:55;;;;;;;3.70;3.37;;;12.80;99.90;;;;;;4983277;28;20473;-66
2023/05/09 00:47:24;;;;;;;3.90;3.57;;;12.80;99.90;;;;;;4979606;28;20493;-67
2023/05/09 00:49:52;;;;;;;4.60;4.00;;;12.80;99.90;;;;;;4983077;28;20544;-66
2023/05/09 00:52:22;;;;;;;3.30;3.10;;;12.70;99.90;;;;;;4979845;28;20469;-67
2023/05/09 00:54:52;;;;;;;4.10;3.80;;;12.70;99.90;;;;;;4980204;28;20846;-66
2023/05/09 00:57:20;;;;;;;4.03;3.63;;;12.70;99.90;;;;;;4982804;28;20489;-68
2023/05/09 00:59:48;;;;;;;3.90;3.60;;;12.70;99.90;;;;;;4982701;28;20474;-67
2023/05/09 01:02:17;;;;;;;4.07;3.80;;;12.60;99.90;;;;;;4981698;28;20469;-66
2023/05/09 01:04:45;;;;;;;5.63;3.60;;;12.60;99.90;;;;;;4982784;28;20561;-67
2023/05/09 01:07:21;;;;;;;5.77;3.33;;;12.60;99.90;;;;;;4983472;28;20493;-67
2023/05/09 01:10:00;;;;;;;3.90;3.60;;;12.60;99.90;;;;;;4984401;28;20477;-67
2023/05/09 01:12:36;;;;;;;4.70;3.77;;;12.50;99.90;;;;;;4983344;28;20469;-67
2023/05/09 01:15:12;;;;;;;5.03;3.40;;;12.50;99.90;;;;;;4981725;28;20480;-67
2023/05/09 01:17:48;;;;;;;4.10;3.70;;;12.40;99.90;;;;;;4978804;28;20500;-67
2023/05/09 01:20:23;;;;;;;4.10;3.67;;;12.40;99.90;;;;;;4982574;28;21045;-67
2023/05/09 01:23:00;;;;;;;4.40;4.00;;;12.40;99.90;;;;;;4983285;28;20474;-67
2023/05/09 01:25:44;;;;;;;4.87;4.33;;;12.40;99.90;;;;;;4982605;28;20462;-67
2023/05/09 01:28:29;;;;;;;4.67;4.27;;;12.30;99.90;;;;;;4978073;28;20461;-66
2023/05/09 01:30:59;;;;;;;3.87;3.57;;;12.30;99.90;;;;;;4981937;28;20473;-67
2023/05/09 01:33:29;;;;;;;4.20;3.90;;;12.30;99.90;;;;;;4979527;28;20532;-67
2023/05/09 01:36:02;;;;;;;4.40;4.00;;;12.20;99.90;;;;;;4981134;28;20883;-67
2023/05/09 01:38:32;;;;;;;5.43;4.13;;;12.20;99.90;;;;;;4982453;28;21110;-67
2023/05/09 01:41:04;;;;;;;4.87;4.33;;;12.20;99.90;;;;;;4984406;28;20480;-67
2023/05/09 01:43:34;;;;;;;4.67;4.17;;;12.10;99.90;;;;;;4980795;28;20481;-68
2023/05/09 01:46:05;;;;;;;4.33;3.93;;;12.10;99.90;;;;;;4980872;28;21011;-68
2023/05/09 01:48:35;;;;;;;4.13;3.83;;;12.10;99.90;;;;;;4977267;28;20478;-68
2023/05/09 01:51:05;;;;;;;4.70;4.30;;;12.10;99.90;;;;;;4981268;28;20893;-67
2023/05/09 01:53:34;;;;;;;4.60;4.20;;;12.00;99.90;;;;;;4982290;28;21073;-67
2023/05/09 01:56:04;;;;;;;4.07;3.77;;;12.00;99.90;;;;;;4983676;28;20572;-68
2023/05/09 01:58:33;;;;;;;4.37;4.00;;;12.00;99.90;;;;;;4976621;28;20482;-67
2023/05/09 02:01:03;;;;;;;4.83;4.40;;;11.90;99.90;;;;;;4980476;28;20497;-68
2023/05/09 02:03:33;;;;;;;4.93;4.53;;;11.90;99.90;;;;;;4989877;28;20469;-68
2023/05/09 02:06:04;;;;;;;4.73;4.33;;;11.90;99.90;;;;;;5004497;28;20485;-68
2023/05/09 02:08:32;;;;;;;5.43;3.93;;;11.90;99.90;;;;;;4983092;28;20483;-67
2023/05/09 02:11:00;;;;;;;4.27;3.97;;;11.80;99.90;;;;;;4976461;28;20971;-67
2023/05/09 02:13:29;;;;;;;6.90;4.33;;;11.80;99.90;;;;;;4980351;28;20486;-67
2023/05/09 02:15:57;;;;;;;5.10;4.60;;;11.80;99.90;;;;;;4981171;28;20498;-67
2023/05/09 02:18:26;;;;;;;5.60;5.10;;;11.80;99.90;;;;;;4976786;28;20486;-68
2023/05/09 02:20:54;;;;;;;6.43;4.50;;;11.80;99.90;;;;;;4976085;28;20481;-67
2023/05/09 02:23:22;;;;;;;5.00;4.60;;;11.70;99.90;;;;;;4977959;28;20529;-67
2023/05/09 02:25:53;;;;;;;5.50;5.10;;;11.70;99.90;;;;;;4979724;28;20494;-67
2023/05/09 02:28:22;;;;;;;5.27;4.77;;;11.70;99.90;;;;;;4978434;28;20596;-67
2023/05/09 02:30:52;;;;;;;6.20;4.90;;;11.70;99.90;;;;;;4978618;28;20861;-68
2023/05/09 02:33:20;;;;;;;4.77;4.37;;;11.60;99.90;;;;;;4978025;28;20480;-67
2023/05/09 02:35:50;;;;;;;4.70;4.40;;;11.60;99.90;;;;;;4978560;28;20497;-67
2023/05/09 02:38:20;;;;;;;5.00;4.60;;;11.60;99.90;;;;;;4979507;28;20501;-67
2023/05/09 02:40:48;;;;;;;5.80;4.70;;;11.50;99.90;;;;;;4979407;28;20478;-67
2023/05/09 02:43:46;;;;;;;5.23;4.73;;;11.50;99.90;;;;;;4975941;28;20477;-67
2023/05/09 02:46:17;;;;;;;5.60;5.10;;;11.40;99.90;;;;;;4980521;28;20674;-67
2023/05/09 02:48:45;;;;;;;5.20;4.70;;;11.40;99.90;;;;;;4977460;28;20504;-67
2023/05/09 02:51:14;;;;;;;5.50;4.97;;;11.40;99.90;;;;;;4978561;28;20500;-68
2023/05/09 02:53:42;;;;;;;5.00;4.60;;;11.30;99.90;;;;;;4977359;28;20473;-68
2023/05/09 02:56:10;;;;;;;4.90;4.50;;;11.30;99.90;;;;;;4979071;28;20493;-67
2023/05/09 02:58:38;;;;;;;7.10;5.10;;;11.20;99.90;;;;;;4975261;28;20484;-68
2023/05/09 03:01:06;;;;;;;5.60;5.10;;;11.30;99.90;;;;;;4979190;28;20469;-67
2023/05/09 03:03:34;;;;;;;4.73;4.33;;;11.20;99.90;;;;;;4980537;28;20557;-68
2023/05/09 03:06:02;;;;;;;4.97;4.57;;;11.20;99.90;;;;;;4979134;28;20513;-68
2023/05/09 03:08:32;;;;;;;5.47;5.03;;;11.20;99.90;;;;;;4978739;28;20468;-67
2023/05/09 03:11:00;;;;;;;5.80;5.20;;;11.10;99.90;;;;;;4979237;28;21168;-67
2023/05/09 03:13:28;;;;;;;5.83;5.23;;;11.10;99.90;;;;;;4980181;28;21379;-67
2023/05/09 03:15:56;;;;;;;5.83;5.07;;;11.10;99.90;;;;;;4979478;28;20493;-67
2023/05/09 03:18:24;;;;;;;5.33;4.93;;;11.10;99.90;;;;;;4979626;28;20999;-67
2023/05/09 03:20:52;;;;;;;5.90;5.27;;;11.00;99.90;;;;;;4982687;28;20549;-67
2023/05/09 03:23:20;;;;;;;5.50;5.00;;;11.00;99.90;;;;;;4982132;28;20484;-68
2023/05/09 03:25:49;;;;;;;5.40;5.00;;;11.00;99.90;;;;;;4979778;28;20489;-68
2023/05/09 03:28:29;;;;;;;5.17;4.77;;;10.90;99.90;;;;;;4978641;28;20975;-67
2023/05/09 03:31:15;;;;;;;6.13;5.50;;;10.90;99.90;;;;;;4975996;28;20469;-68
2023/05/09 03:33:43;;;;;;;5.80;5.30;;;10.90;99.90;;;;;;4978552;28;20466;-68
2023/05/09 03:36:11;;;;;;;6.27;4.80;;;10.90;99.90;;;;;;4980349;28;20489;-67
2023/05/09 03:38:39;;;;;;;6.77;5.60;;;10.80;99.90;;;;;;4980411;28;20488;-67
2023/05/09 03:41:08;;;;;;;6.00;5.40;;;10.80;99.90;;;;;;4977786;28;20462;-68
2023/05/09 03:43:36;;;;;;;5.67;5.10;;;10.80;99.90;;;;;;4979477;28;20974;-68
2023/05/09 03:46:05;;;;;;;6.53;5.87;;;10.70;99.90;;;;;;4978770;28;20489;-68
2023/05/09 03:48:32;;;;;;;5.63;5.20;;;10.70;99.90;;;;;;4978810;28;20564;-68
2023/05/09 03:51:01;;;;;;;6.53;5.60;;;10.60;99.90;;;;;;4979488;28;20496;-68
2023/05/09 03:53:29;;;;;;;5.87;5.40;;;10.70;99.90;;;;;;4978878;28;20528;-67
2023/05/09 03:55:57;;;;;;;5.77;5.27;;;10.70;99.90;;;;;;4983640;28;20581;-67
2023/05/09 03:58:26;;;;;;;6.50;5.37;;;10.70;99.90;;;;;;4979175;28;20493;-68
2023/05/09 04:00:56;;;;;;;6.43;5.70;;;10.60;99.90;;;;;;4977352;28;20904;-67
2023/05/09 04:03:24;;;;;;;6.27;5.77;;;10.60;99.90;;;;;;4979532;28;20478;-67
2023/05/09 04:05:52;;;;;;;5.90;5.40;;;10.60;99.90;;;;;;4979780;28;20492;-67
2023/05/09 04:08:20;;;;;;;5.67;5.17;;;10.50;99.90;;;;;;4982307;28;20557;-67
2023/05/09 04:10:49;;;;;;;6.40;5.77;;;10.50;99.90;;;;;;4992197;28;20473;-67
2023/05/09 04:13:17;;;;;;;6.00;5.50;;;10.50;99.90;;;;;;4994461;28;20466;-67
2023/05/09 04:15:47;;;;;;;6.13;5.63;;;10.50;99.90;;;;;;4989164;28;20549;-68
2023/05/09 04:18:15;;;;;;;5.97;5.47;;;10.50;99.90;;;;;;4988397;28;20500;-68
2023/05/09 04:20:43;;;;;;;6.10;5.60;;;10.40;99.90;;;;;;4997051;28;20469;-67
2023/05/09 04:23:11;;;;;;;6.50;5.90;;;10.40;99.90;;;;;;4993892;28;20480;-67
2023/05/09 04:25:39;;;;;;;6.03;5.53;;;10.40;99.90;;;;;;4992712;28;20476;-67
2023/05/09 04:28:07;;;;;;;6.30;5.70;;;10.40;99.90;;;;;;4993646;28;21033;-67
2023/05/09 04:30:35;;;;;;;6.20;5.60;;;10.40;99.90;;;;;;4992781;28;20485;-67
2023/05/09 04:33:05;;;;;;;6.00;5.50;;;10.40;99.90;;;;;;4987835;28;20468;-67
2023/05/09 04:35:33;;;;;;;6.80;6.20;;;10.40;99.90;;;;;;4990706;28;20462;-67
2023/05/09 04:38:01;;;;;;;6.70;6.00;;;10.40;99.90;;;;;;4990309;28;20484;-67
2023/05/09 04:40:29;;;;;;;7.57;5.87;;;10.40;99.90;;;;;;4987558;28;20502;-67
2023/05/09 04:42:57;;;;;;;6.50;5.97;;;10.40;99.90;;;;;;4975673;28;20484;-67
2023/05/09 04:45:26;;;;;;;6.37;5.70;;;10.50;99.90;;;;;;4990341;28;21163;-67
2023/05/09 04:47:54;;;;;;;6.20;5.70;;;10.50;99.90;;;;;;4990912;28;20475;-67
2023/05/09 04:50:23;;;;;;;6.77;6.17;;;10.40;99.90;;;;;;4983951;28;20873;-66
2023/05/09 04:52:51;;;;;;;6.83;6.13;;;10.40;99.90;;;;;;4980124;28;21277;-67
2023/05/09 04:55:20;;;;;;;6.33;5.83;;;10.40;99.90;;;;;;4985597;28;20469;-69
2023/05/09 04:57:47;;;;;;;8.20;6.60;;;10.50;99.90;;;;;;4986672;28;20499;-66
2023/05/09 05:00:18;;;;;;;8.77;6.30;;;10.50;99.90;;;;;;4984304;28;20490;-66
2023/05/09 05:02:46;;;;;;;6.93;6.37;;;10.50;99.90;;;;;;4983811;28;20564;-66
2023/05/09 05:05:14;;;;;;;7.00;6.40;;;10.50;99.90;;;;;;4978225;28;20540;-67
2023/05/09 05:07:43;;;;;;;7.13;6.40;;;10.60;99.90;;;;;;4984341;28;20852;-67
2023/05/09 05:10:12;;;;;;;6.80;6.13;;;10.60;99.90;;;;;;4985150;28;20485;-67
2023/05/09 05:12:40;;;;;;;7.30;6.23;;;10.70;99.90;;;;;;4979065;28;20474;-66
2023/05/09 05:15:09;;;;;;;6.93;6.30;;;10.70;99.90;;;;;;4973136;28;20572;-67
2023/05/09 05:17:37;;;;;;;6.23;5.73;;;10.70;99.90;;;;;;4972739;28;20493;-67
2023/05/09 05:20:07;;;;;;;6.47;5.87;;;10.70;99.90;;;;;;4979571;28;20608;-67
2023/05/09 05:22:35;;;;;;;7.00;6.50;;;10.70;99.90;;;;;;4981665;28;20542;-67
2023/05/09 05:25:05;;;;;;;6.57;6.00;;;10.70;99.90;;;;;;4981697;28;20489;-67
2023/05/09 05:27:33;;;;;;;6.40;5.80;;;10.80;99.90;;;;;;4981073;28;20501;-67
2023/05/09 05:30:01;;;;;;;8.03;7.20;;;10.80;99.90;;;;;;4986222;28;20496;-67
2023/05/09 05:32:29;;;;;;;7.20;6.30;;;10.80;99.90;;;;;;4991658;28;20509;-67
2023/05/09 05:34:57;;;;;;;9.07;6.33;;;10.90;99.90;;;;;;4988504;28;20960;-67
2023/05/09 05:37:25;;;;;;;6.63;6.07;;;10.90;99.90;;;;;;4986424;28;20493;-67
2023/05/09 05:39:53;;;;;;;7.23;6.63;;;11.00;99.90;;;;;;4978500;28;20501;-67
2023/05/09 05:42:22;;;;;;;8.67;6.67;;;11.00;99.90;;;;;;4981323;28;20484;-68
2023/05/09 05:44:50;;;;;;;7.90;7.17;;;11.10;99.90;;;;;;4972713;28;20469;-67
2023/05/09 05:47:18;;;;;;;7.40;6.80;;;11.10;99.90;;;;;;4976262;28;20523;-67
2023/05/09 05:49:46;;;;;;;6.80;6.27;;;11.10;99.90;;;;;;4971313;28;20496;-67
2023/05/09 05:52:14;;;;;;;6.67;6.00;;;11.10;99.90;;;;;;4978347;28;20479;-67
2023/05/09 05:54:42;;;;;;;6.83;6.23;;;11.20;99.90;;;;;;4981851;28;20991;-68
2023/05/09 05:57:10;;;;;;;8.63;6.97;;;11.20;99.90;;;;;;4980156;28;20496;-68
2023/05/09 05:59:40;;;;;;;7.70;7.00;;;11.20;99.90;;;;;;4978095;28;20496;-67
2023/05/09 06:02:07;;;;;;;7.07;6.37;;;11.20;99.90;;;;;;4980413;28;20945;-68
2023/05/09 06:04:35;;;;;;;6.43;5.83;;;11.30;99.90;;;;;;4979501;28;20469;-67
2023/05/09 06:07:03;;;;;;;7.90;7.20;;;11.30;99.90;;;;;;4978588;28;20938;-67
2023/05/09 06:09:31;;;;;;;7.00;6.40;;;11.40;99.90;;;;;;4982291;28;20856;-67
2023/05/09 06:11:59;;;;;;;7.70;7.10;;;11.40;99.90;;;;;;4982774;28;20967;-67
2023/05/09 06:14:27;;;;;;;7.83;6.70;;;11.40;99.90;;;;;;5002573;28;20536;-67
2023/05/09 06:16:57;;;;;;;6.57;6.07;;;11.50;99.90;;;;;;4996335;28;20489;-67
2023/05/09 06:19:25;;;;;;;7.87;7.10;;;11.50;99.90;;;;;;4985569;28;20573;-67
2023/05/09 06:21:53;;;;;;;8.03;6.50;;;11.60;99.90;;;;;;4984067;28;20497;-67
2023/05/09 06:24:21;;;;;;;7.60;6.90;;;11.60;99.90;;;;;;4982860;28;20477;-67
2023/05/09 06:27:02;;;;;;;7.70;6.93;;;11.70;99.90;;;;;;4980228;28;20488;-67
2023/05/09 06:29:30;;;;;;;8.10;7.30;;;11.70;99.90;;;;;;4983421;28;20970;-67
2023/05/09 06:32:00;;;;;;;7.73;6.67;;;11.80;99.90;;;;;;4981974;28;20477;-67
2023/05/09 06:34:28;;;;;;;7.13;6.43;;;11.80;99.90;;;;;;4981880;28;20470;-67
2023/05/09 06:36:55;;;;;;;7.20;6.50;;;11.80;99.90;;;;;;4981047;28;20496;-67
2023/05/09 06:39:23;;;;;;;9.97;7.07;;;11.90;99.90;;;;;;4980354;28;20833;-67
2023/05/09 06:41:51;;;;;;;7.10;6.40;;;11.90;99.90;;;;;;4978661;28;20481;-67
2023/05/09 06:44:19;;;;;;;6.87;6.37;;;12.00;99.90;;;;;;4981175;28;20477;-67
2023/05/09 06:46:47;;;;;;;6.90;6.37;;;12.00;99.90;;;;;;4982992;28;20525;-67
2023/05/09 06:49:17;;;;;;;6.87;6.27;;;12.00;99.90;;;;;;4980855;28;20486;-66
2023/05/09 06:51:45;;;;;;;7.30;6.70;;;12.00;99.90;;;;;;4981635;28;20474;-67
2023/05/09 06:54:13;;;;;;;7.17;6.43;;;12.10;99.90;;;;;;4977994;28;20484;-67
2023/05/09 06:56:41;;;;;;;7.03;6.53;;;12.10;99.90;;;;;;4981779;28;20486;-67
2023/05/09 06:59:12;;;;;;;7.33;6.73;;;12.20;99.90;;;;;;4980910;28;20509;-67
2023/05/09 07:01:40;;;;;;;7.53;6.83;;;12.30;99.90;;;;;;4979511;28;21145;-67
2023/05/09 07:04:08;;;;;;;7.57;6.97;;;12.30;99.90;;;;;;4981902;28;20557;-67
2023/05/09 07:06:37;;;;;;;6.90;6.30;;;12.40;99.90;;;;;;4975981;28;20505;-67
2023/05/09 07:09:05;;;;;;;7.27;6.70;;;12.50;99.90;;;;;;4980028;28;20489;-67
2023/05/09 07:11:37;;;;;;;8.80;5.97;;;12.60;99.90;;;;;;4977430;28;20469;-67
2023/05/09 07:14:04;;;;;;;6.77;6.27;;;12.60;99.90;;;;;;4981631;28;21180;-67
2023/05/09 07:16:33;;;;;;;7.13;6.43;;;12.70;99.90;;;;;;4979930;28;20503;-67
2023/05/09 07:19:04;;;;;;;6.87;6.27;;;12.80;99.90;;;;;;4981003;28;20503;-67
2023/05/09 07:21:33;;;;;;;7.57;6.90;;;12.80;99.90;;;;;;4979572;28;20739;-67
2023/05/09 07:24:02;;;;;;;6.60;6.00;;;13.00;99.90;;;;;;4980768;28;20473;-67
2023/05/09 07:26:30;;;;;;;8.00;7.20;;;13.00;99.90;;;;;;4977903;28;20493;-67
2023/05/09 07:28:58;;;;;;;9.90;6.60;;;13.20;99.90;;;;;;4981104;28;20503;-67
2023/05/09 07:31:26;;;;;;;9.30;6.93;;;13.20;99.90;;;;;;4977582;28;20465;-67
2023/05/09 07:33:54;;;;;;;7.50;6.80;;;13.30;99.90;;;;;;4976123;28;20531;-68
2023/05/09 07:36:22;;;;;;;7.03;6.53;;;13.40;99.90;;;;;;4980865;28;20501;-68
2023/05/09 07:38:51;;;;;;;6.83;6.23;;;13.50;99.90;;;;;;4980892;28;20998;-67
2023/05/09 07:41:21;;;;;;;7.10;6.50;;;13.60;99.90;;;;;;4980586;28;21046;-67
2023/05/09 07:43:49;;;;;;;7.07;6.37;;;13.80;99.90;;;;;;4974202;28;20502;-68
2023/05/09 07:46:17;;;;;;;6.53;5.93;;;13.90;99.90;;;;;;4982685;28;20497;-68
2023/05/09 07:48:45;;;;;;;6.70;6.00;;;14.00;99.90;;;;;;4984147;28;20488;-68
2023/05/09 07:51:13;;;;;;;6.63;6.10;;;14.10;99.90;;;;;;4982879;28;20989;-69
2023/05/09 07:53:41;;;;;;;6.70;6.10;;;14.20;99.90;;;;;;4983955;28;20481;-67
2023/05/09 07:56:09;;;;;;;6.70;5.93;;;14.30;99.90;;;;;;4983090;28;20533;-67
2023/05/09 07:58:38;;;;;;;6.70;6.20;;;14.40;99.90;;;;;;4978880;28;20491;-68
2023/05/09 08:01:06;;;;;;;6.17;5.67;;;14.60;99.90;;;;;;4983749;28;20490;-68
2023/05/09 08:03:34;;;;;;;7.03;6.43;;;14.70;99.90;;;;;;4984035;28;21003;-67
2023/05/09 08:06:02;;;;;;;6.30;5.80;;;14.80;99.90;;;;;;4984381;28;20507;-68
2023/05/09 08:08:30;;;;;;;6.87;6.30;;;14.90;99.90;;;;;;4978121;28;20495;-68
2023/05/09 08:10:58;;;;;;;6.20;5.70;;;15.00;99.90;;;;;;4982354;28;20663;-67
2023/05/09 08:13:26;;;;;;;5.90;5.50;;;15.10;99.90;;;;;;4983642;28;20472;-68
2023/05/09 08:15:56;;;;;;;6.33;5.70;;;15.20;99.90;;;;;;4980871;28;21015;-69
2023/05/09 08:18:25;;;;;;;6.40;5.90;;;15.30;99.90;;;;;;4980130;28;20484;-68
2023/05/09 08:20:53;;;;;;;6.30;5.80;;;15.40;99.90;;;;;;4980696;28;21065;-68
2023/05/09 08:23:21;;;;;;;7.03;6.20;;;15.60;99.90;;;;;;4980959;28;20480;-69
2023/05/09 08:25:53;;;;;;;6.43;5.93;;;15.70;99.90;;;;;;4982031;28;20513;-69
2023/05/09 08:28:22;;;;;;;5.90;5.50;;;15.80;99.90;;;;;;4984225;28;20986;-68
2023/05/09 08:30:51;;;;;;;7.30;5.80;;;15.80;99.90;;;;;;4980506;28;20476;-67
2023/05/09 08:33:20;;;;;;;6.57;6.00;;;15.90;99.90;;;;;;4980198;28;20470;-68
2023/05/09 08:35:50;;;;;;;5.77;5.27;;;15.90;99.90;;;;;;4981554;28;20474;-69
2023/05/09 08:38:19;;;;;;;7.30;5.10;;;16.00;99.90;;;;;;4980527;28;20469;-69
2023/05/09 08:40:47;;;;;;;6.33;5.80;;;16.10;99.90;;;;;;4980500;28;20505;-69
2023/05/09 08:43:17;;;;;;;5.70;5.30;;;16.20;99.90;;;;;;4980276;28;20471;-68
2023/05/09 08:45:47;;;;;;;5.80;5.20;;;16.30;99.90;;;;;;4984012;28;20469;-69
2023/05/09 08:48:16;;;;;;;6.20;5.60;;;16.40;99.90;;;;;;4980581;28;20839;-68
2023/05/09 08:50:46;;;;;;;7.07;5.73;;;16.50;99.90;;;;;;4982007;28;20893;-68
2023/05/09 08:53:14;;;;;;;5.77;5.37;;;16.50;99.90;;;;;;4981986;28;20476;-68
2023/05/09 08:55:42;;;;;;;6.23;5.73;;;16.60;99.90;;;;;;4981552;28;20478;-68
2023/05/09 08:58:10;;;;;;;5.53;5.13;;;16.70;99.90;;;;;;4980801;28;20991;-67
2023/05/09 09:00:41;;;;;;;5.80;5.20;;;16.80;99.90;;;;;;4981285;28;20473;-68
2023/05/09 09:03:10;;;;;;;5.37;4.87;;;16.90;99.90;;;;;;4983877;28;20485;-68
2023/05/09 09:05:41;;;;;;;6.03;5.40;;;17.00;99.90;;;;;;4980727;28;20477;-68
2023/05/09 09:08:11;;;;;;;5.40;5.00;;;17.10;99.90;;;;;;4978887;28;20548;-68
2023/05/09 09:10:41;;;;;;;5.93;5.33;;;17.30;99.90;;;;;;4981457;28;20503;-68
2023/05/09 09:13:12;;;;;;;5.53;5.03;;;17.30;99.90;;;;;;4982936;28;20477;-69
2023/05/09 09:15:42;;;;;;;5.80;5.20;;;17.30;99.90;;;;;;4981757;28;20582;-69
2023/05/09 09:18:16;;;;;;;6.50;5.30;;;17.40;99.90;;;;;;4980388;28;20476;-68
2023/05/09 09:20:49;;;;;;;5.70;5.20;;;17.40;99.90;;;;;;4980388;28;21002;-67
2023/05/09 09:23:20;;;;;;;5.40;5.00;;;17.50;99.90;;;;;;4980772;28;20477;-69
2023/05/09 09:25:48;;;;;;;5.20;4.90;;;17.60;99.90;;;;;;4978370;28;20495;-69
2023/05/09 09:28:17;;;;;;;5.33;4.83;;;17.60;99.90;;;;;;4978494;28;20470;-69
2023/05/09 09:30:47;;;;;;;5.53;5.13;;;17.60;99.90;;;;;;4982939;28;20843;-69
2023/05/09 09:33:20;;;;;;;5.80;5.30;;;17.60;99.90;;;;;;4979867;28;20478;-69
2023/05/09 09:35:49;;;;;;;5.13;4.73;;;17.60;99.90;;;;;;4981947;28;20473;-69
2023/05/09 09:38:19;;;;;;;6.03;5.10;;;17.60;99.90;;;;;;4981030;28;20910;-69
2023/05/09 09:40:54;;;;;;;6.30;5.50;;;17.70;99.90;;;;;;4979862;28;20473;-69
2023/05/09 09:43:27;;;;;;;9.20;5.60;;;17.70;99.90;;;;;;4982120;28;20488;-69
2023/05/09 09:45:55;;;;;;;5.57;5.17;;;17.70;99.90;;;;;;4982146;28;20505;-69
2023/05/09 09:48:25;;;;;;;5.43;5.03;;;17.70;99.90;;;;;;4979658;28;20478;-69
2023/05/09 09:50:55;;;;;;;5.40;4.60;;;17.80;99.90;;;;;;4981329;28;21025;-69
2023/05/09 09:53:29;;;;;;;4.70;4.30;;;17.80;99.90;;;;;;4982187;28;20472;-67
2023/05/09 09:55:57;;;;;;;5.20;4.70;;;18.00;99.90;;;;;;4982659;28;20501;-69
2023/05/09 09:58:25;;;;;;;5.20;4.70;;;18.10;99.90;;;;;;4976879;28;20489;-67
2023/05/09 10:01:12;;;;;;;4.93;4.30;;;18.30;99.90;;;;;;4981389;28;20476;-67
2023/05/09 10:03:43;;;;;;;5.10;4.60;;;18.40;99.90;;;;;;4980549;28;21141;-67
2023/05/09 10:06:12;;;;;;;4.67;4.27;;;18.50;99.90;;;;;;4980756;28;20505;-67
2023/05/09 10:08:43;;;;;;;4.40;4.10;;;18.60;96.40;;;;;;4980475;28;20504;-67
2023/05/09 10:11:11;;;;;;;6.07;4.73;;;18.70;97.00;;;;;;4982889;28;20470;-67
2023/05/09 10:13:39;;;;;;;4.90;4.40;;;18.80;95.60;;;;;;4978781;28;20464;-67
2023/05/09 10:16:09;;;;;;;4.90;4.50;;;18.90;91.70;;;;;;4979158;28;20484;-67
2023/05/09 10:18:39;;;;;;;4.73;4.43;;;19.10;86.90;;;;;;4977208;28;20477;-67
2023/05/09 10:21:11;;;;;;;4.80;4.40;;;19.10;88.70;;;;;;4979789;28;20962;-67
2023/05/09 10:23:46;;;;;;;5.23;4.83;;;19.20;85.70;;;;;;4979365;28;20476;-67
2023/05/09 10:26:18;;;;;;;4.53;4.20;;;19.30;97.40;;;;;;4979596;28;20575;-67
2023/05/09 10:28:48;;;;;;;4.90;4.40;;;19.40;94.60;;;;;;4981361;28;20493;-67
2023/05/09 10:31:22;;;;;;;6.23;4.33;;;19.50;92.00;;;;;;4978010;28;21045;-67
2023/05/09 10:33:51;;;;;;;6.03;4.57;;;19.60;89.60;;;;;;4980852;28;20474;-67
2023/05/09 10:36:20;;;;;;;5.00;4.50;;;19.70;87.50;;;;;;4979988;28;20572;-67
2023/05/09 10:38:51;;;;;;;4.97;4.57;;;19.80;82.60;;;;;;4979291;28;20477;-68
2023/05/09 10:41:21;;;;;;;4.63;4.30;;;19.90;74.40;;;;;;4980788;28;20853;-65
2023/05/09 10:43:49;;;;;;;5.53;4.07;;;19.90;85.20;;;;;;4981653;28;20521;-66
2023/05/09 10:46:18;;;;;;;4.50;4.20;;;20.00;83.40;;;;;;4977227;28;20489;-66
2023/05/09 10:48:48;;;;;;;4.70;4.20;;;20.20;82.80;;;;;;4980014;28;20489;-66
2023/05/09 10:51:17;;;;;;;4.23;3.93;;;20.30;74.90;;;;;;4980321;28;20477;-67
2023/05/09 10:53:47;;;;;;;4.60;4.30;;;20.40;71.60;;;;;;4976281;28;21005;-66
2023/05/09 10:56:25;;;;;;;4.43;4.13;;;20.50;68.50;;;;;;4977387;28;20559;-67
2023/05/09 10:58:54;;;;;;;6.80;4.80;;;20.60;66.20;;;;;;4979869;28;20487;-66
2023/05/09 11:01:33;;;;;;;5.50;4.50;;;20.70;64.50;;;;;;4981198;28;20483;-66
2023/05/09 11:04:08;;;;;;;4.53;4.23;;;20.70;60.80;;;;;;4979146;28;20485;-66
2023/05/09 11:06:47;;;;;;;6.67;4.40;;;20.70;60.40;;;;;;4978509;28;21080;-67
2023/05/09 11:09:31;;;;;;;4.53;4.10;;;20.80;59.30;;;;;;4978974;28;20489;-66
2023/05/09 11:12:12;;;;;;;4.80;4.37;;;21.00;60.60;;;;;;4978514;28;20492;-67
2023/05/09 11:14:43;;;;;;;6.07;4.50;;;21.10;60.20;;;;;;4979373;28;20826;-67
2023/05/09 11:17:12;;;;;;;4.03;3.73;;;21.20;58.90;;;;;;4978130;28;20511;-67
2023/05/09 11:20:00;;;;;;;5.07;4.03;;;21.20;58.20;;;;;;4971149;28;20874;-67
2023/05/09 11:22:31;;;;;;;4.63;4.20;;;21.30;55.30;;;;;;4977533;28;20486;-67
2023/05/09 11:25:03;;;;;;;5.53;4.50;;;21.30;56.30;;;;;;4970585;28;20552;-67
2023/05/09 11:27:42;;;;;;;4.90;4.50;;;21.40;59.10;;;;;;4975333;28;20503;-67
2023/05/09 11:30:13;;;;;;;6.20;4.60;;;21.50;55.60;;;;;;4976650;28;20568;-67
2023/05/09 11:32:43;;;;;;;4.30;4.00;;;21.50;58.20;;;;;;4977609;28;20505;-66
2023/05/09 11:35:14;;;;;;;5.00;4.60;;;21.60;54.00;;;;;;4978328;28;21069;-67
2023/05/09 11:37:47;;;;;;;4.47;4.07;;;21.70;52.20;;;;;;4979723;28;20498;-67
2023/05/09 11:40:17;;;;;;;5.10;4.60;;;21.70;51.40;;;;;;4970193;28;20501;-67
2023/05/09 11:42:49;;;;;;;4.27;3.90;;;21.80;52.30;;;;;;4972008;28;20503;-66
2023/05/09 11:45:17;;;;;;;3.90;3.57;;;21.80;50.10;;;;;;4967914;28;20481;-65
2023/05/09 11:47:46;;;;;;;5.57;4.00;;;21.90;49.80;;;;;;4971237;28;20496;-66
2023/05/09 11:50:16;;;;;;;4.20;3.80;;;22.00;49.10;;;;;;4977415;28;21111;-65
2023/05/09 11:52:44;;;;;;;4.10;3.80;;;22.10;47.60;;;;;;4977579;28;20876;-66
2023/05/09 11:55:15;;;;;;;4.17;3.87;;;22.20;45.70;;;;;;4978133;28;20477;-66
2023/05/09 11:57:47;;;;;;;3.87;3.67;;;22.30;47.10;;;;;;4977534;28;20501;-66
2023/05/09 12:00:16;;;;;;;4.03;3.73;;;22.40;48.50;;;;;;4978234;28;20489;-66
2023/05/09 12:02:45;;;;;;;4.80;4.40;;;22.50;45.40;;;;;;4974216;28;21093;-67
2023/05/09 12:05:15;;;;;;;4.23;3.83;;;22.50;48.00;;;;;;4978416;28;21034;-65
2023/05/09 12:07:43;;;;;;;5.40;4.63;;;22.60;45.70;;;;;;4980937;28;20520;-66
2023/05/09 12:10:13;;;;;;;4.43;4.13;;;22.70;46.10;;;;;;4976278;28;20500;-66
2023/05/09 12:12:47;;;;;;;4.40;4.10;;;22.90;48.70;;;;;;4965105;28;20583;-66
2023/05/09 12:15:15;;;;;;;4.30;3.97;;;22.90;48.60;;;;;;4979434;28;20469;-66
2023/05/09 12:17:46;;;;;;;4.83;4.43;;;23.10;47.70;;;;;;4976509;28;20710;-66
2023/05/09 12:20:17;;;;;;;4.67;4.37;;;23.20;47.20;;;;;;4973902;28;20508;-66
2023/05/09 12:22:52;;;;;;;5.10;4.67;;;23.40;45.70;;;;;;4977619;28;20598;-66
2023/05/09 12:25:20;;;;;;;5.70;5.13;;;23.50;46.20;;;;;;4978629;28;20474;-67
2023/05/09 12:27:53;;;;;;;5.90;5.50;;;23.60;43.80;;;;;;4979235;28;20531;-66
2023/05/09 12:30:21;;;;;;;10.27;9.27;;;23.50;44.00;;;;;;4976763;28;20485;-68
2023/05/09 12:32:49;;;;;;;10.03;9.07;;;23.60;44.10;;;;;;4981534;28;20469;-66
2023/05/09 12:35:21;;;;;;;13.53;12.00;;;23.70;45.90;;;;;;4977271;28;20469;-67
2023/05/09 12:37:56;;;;;;;12.63;11.63;;;23.70;43.00;;;;;;4980542;28;20513;-66
2023/05/09 12:40:25;;;;;;;13.93;12.57;;;23.80;43.90;;;;;;4969693;28;20959;-66
2023/05/09 12:42:59;;;;;;;10.10;9.10;;;23.80;44.10;;;;;;4976184;28;20620;-66
2023/05/09 12:45:27;;;;;;;7.77;6.47;;;24.00;42.60;;;;;;4981461;28;20464;-66
2023/05/09 12:47:57;;;;;;;7.17;5.77;;;24.00;41.90;;;;;;4976303;28;20503;-67
2023/05/09 12:50:33;;;;;;;5.20;4.80;;;23.90;42.10;;;;;;4975351;28;20488;-67
2023/05/09 12:53:03;;;;;;;5.27;4.87;;;24.00;45.20;;;;;;4978958;28;20474;-67
2023/05/09 12:55:31;;;;;;;5.60;5.20;;;24.00;45.30;;;;;;4983997;28;20504;-67
2023/05/09 12:58:02;;;;;;;5.37;4.97;;;24.10;42.70;;;;;;4983671;28;20497;-67